createdAt,value
2018-10-19T00:02:27.590Z,9.84
2018-10-19T00:04:57.260Z,9.89
2018-10-19T00:07:26.899Z,9.92
2018-10-19T00:09:56.622Z,9.98
2018-10-19T00:12:26.348Z,10.02
2018-10-19T00:14:55.937Z,10.14
2018-10-19T00:17:26.809Z,10.13
2018-10-19T00:19:56.418Z,10.12
2018-10-19T00:22:26.138Z,10.12
2018-10-19T00:24:55.775Z,10.14
2018-10-19T00:27:25.523Z,10.03
2018-10-19T00:29:55.167Z,9.99
2018-10-19T00:32:24.773Z,10.00
2018-10-19T00:34:54.500Z,10.03
2018-10-19T00:37:24.089Z,10.02
2018-10-19T00:39:53.666Z,10.05
2018-10-19T00:42:23.300Z,10.10
2018-10-19T00:44:52.958Z,10.04
2018-10-19T00:47:22.547Z,10.06
2018-10-19T00:49:52.258Z,10.05
2018-10-19T00:52:23.020Z,10.05
2018-10-19T00:55:11.248Z,9.98
2018-10-19T00:57:40.874Z,9.91
2018-10-19T01:00:10.571Z,9.74
2018-10-19T01:02:40.324Z,9.60
2018-10-19T01:05:10.045Z,9.53
2018-10-19T01:07:39.700Z,9.58
2018-10-19T01:10:09.413Z,9.63
2018-10-19T01:12:39.090Z,9.69
2018-10-19T01:15:08.755Z,9.65
2018-10-19T01:17:38.447Z,9.67
2018-10-19T01:20:08.318Z,9.65
2018-10-19T01:22:38.307Z,9.60
2018-10-19T01:25:19.803Z,9.58
2018-10-19T01:27:49.618Z,9.54
2018-10-19T01:30:19.279Z,9.49
2018-10-19T01:32:49.008Z,9.48
2018-10-19T01:35:18.810Z,9.45
2018-10-19T01:37:48.507Z,9.35
2018-10-19T01:43:18.783Z,9.15
2018-10-19T01:45:53.847Z,9.05
2018-10-19T01:48:23.545Z,9.00
2018-10-19T01:50:53.254Z,9.07
2018-10-19T01:53:22.949Z,9.16
2018-10-19T01:55:52.594Z,9.28
2018-10-19T01:58:22.280Z,9.33
2018-10-19T02:00:52.143Z,9.34
2018-10-19T02:03:21.815Z,9.28
2018-10-19T02:05:51.422Z,9.02
2018-10-19T02:08:21.197Z,8.96
2018-10-19T02:10:50.919Z,8.88
2018-10-19T02:13:20.511Z,8.83
2018-10-19T02:15:50.202Z,8.96
2018-10-19T02:18:19.853Z,9.00
2018-10-19T02:20:49.454Z,9.02
2018-10-19T02:23:19.191Z,9.24
2018-10-19T02:25:49.796Z,9.40
2018-10-19T02:28:19.483Z,9.56
2018-10-19T02:30:49.091Z,9.76
2018-10-19T02:33:18.840Z,10.07
2018-10-19T02:35:48.370Z,10.33
2018-10-19T02:38:17.991Z,10.48
2018-10-19T02:40:47.595Z,10.53
2018-10-19T02:43:17.338Z,10.33
2018-10-19T02:45:46.954Z,9.91
2018-10-19T02:48:16.607Z,9.76
2018-10-19T02:50:46.271Z,9.75
2018-10-19T02:53:15.987Z,9.61
2018-10-19T02:55:45.518Z,9.49
2018-10-19T02:58:15.157Z,9.30
2018-10-19T03:00:44.921Z,9.18
2018-10-19T03:03:14.536Z,9.00
2018-10-19T03:05:44.195Z,8.88
2018-10-19T03:08:13.845Z,8.88
2018-10-19T03:10:43.415Z,8.78
2018-10-19T03:13:13.154Z,8.60
2018-10-19T03:15:42.745Z,8.57
2018-10-19T03:18:12.414Z,8.44
2018-10-19T03:20:42.259Z,8.33
2018-10-19T03:23:12.012Z,8.24
2018-10-19T03:25:41.518Z,8.18
2018-10-19T03:28:11.210Z,8.16
2018-10-19T03:30:40.869Z,8.27
2018-10-19T03:33:10.562Z,8.24
2018-10-19T03:35:40.106Z,8.31
2018-10-19T03:38:09.749Z,8.41
2018-10-19T03:40:39.423Z,8.44
2018-10-19T03:43:09.047Z,8.41
2018-10-19T03:45:38.680Z,8.31
2018-10-19T03:48:08.378Z,8.41
2018-10-19T03:50:38.085Z,8.45
2018-10-19T03:53:07.821Z,8.48
2018-10-19T03:55:37.360Z,8.59
2018-10-19T03:58:07.241Z,8.66
2018-10-19T04:00:37.058Z,8.67
2018-10-19T04:03:07.152Z,8.64
2018-10-19T04:05:36.711Z,8.64
2018-10-19T04:08:06.609Z,8.54
2018-10-19T04:10:40.699Z,8.57
2018-10-19T04:13:10.360Z,8.57
2018-10-19T04:15:39.972Z,8.54
2018-10-19T04:18:09.664Z,8.51
2018-10-19T04:20:39.309Z,8.60
2018-10-19T04:23:34.765Z,8.62
2018-10-19T04:26:04.352Z,8.59
2018-10-19T04:28:34.071Z,8.62
2018-10-19T04:31:03.678Z,8.64
2018-10-19T04:33:33.342Z,8.60
2018-10-19T04:36:10.490Z,8.51
2018-10-19T04:38:40.171Z,8.45
2018-10-19T04:41:09.800Z,8.36
2018-10-19T04:43:40.523Z,8.39
2018-10-19T04:46:10.320Z,8.49
2018-10-19T04:48:40.019Z,8.50
2018-10-19T04:51:09.781Z,8.51
2018-10-19T04:53:39.528Z,8.49
2018-10-19T04:56:09.312Z,8.49
2018-10-19T04:58:39.151Z,8.49
2018-10-19T05:01:09.184Z,8.36
2018-10-19T05:03:39.189Z,8.20
2018-10-19T05:09:13.447Z,8.18
2018-10-19T05:11:43.171Z,8.21
2018-10-19T05:14:12.815Z,8.20
2018-10-19T05:16:42.490Z,8.20
2018-10-19T05:19:12.161Z,8.21
2018-10-19T05:21:41.835Z,8.35
2018-10-19T05:24:11.466Z,8.28
2018-10-19T05:26:41.101Z,8.23
2018-10-19T05:29:10.903Z,8.15
2018-10-19T05:31:40.522Z,8.11
2018-10-19T05:34:10.201Z,8.07
2018-10-19T05:36:56.128Z,7.98
2018-10-19T05:39:25.724Z,7.79
2018-10-19T05:41:55.323Z,7.69
2018-10-19T05:44:25.206Z,7.63
2018-10-19T05:46:54.865Z,7.58
2018-10-19T05:49:24.518Z,7.59
2018-10-19T05:51:54.234Z,7.67
2018-10-19T05:54:24.083Z,7.75
2018-10-19T05:56:53.729Z,7.78
2018-10-19T05:59:23.605Z,7.85
2018-10-19T06:01:53.205Z,7.86
2018-10-19T06:07:23.818Z,7.58
2018-10-19T06:09:53.501Z,7.60
2018-10-19T06:12:23.227Z,7.67
2018-10-19T06:14:52.839Z,7.73
2018-10-19T06:17:22.563Z,7.76
2018-10-19T06:19:55.664Z,7.79
2018-10-19T06:22:25.301Z,7.85
2018-10-19T06:24:55.022Z,7.96
2018-10-19T06:27:24.678Z,8.13
2018-10-19T06:29:54.572Z,8.21
2018-10-19T06:32:24.246Z,8.23
2018-10-19T06:34:54.045Z,8.27
2018-10-19T06:37:23.745Z,8.30
2018-10-19T06:39:53.444Z,8.41
2018-10-19T06:42:23.090Z,8.54
2018-10-19T06:44:52.670Z,8.60
2018-10-19T06:47:22.549Z,8.62
2018-10-19T06:49:52.059Z,8.66
2018-10-19T06:52:21.702Z,8.74
2018-10-19T06:54:51.366Z,8.83
2018-10-19T06:57:21.023Z,8.89
2018-10-19T06:59:50.655Z,9.06
2018-10-19T07:02:20.278Z,9.26
2018-10-19T07:04:49.835Z,9.62
2018-10-19T07:07:19.490Z,9.95
2018-10-19T07:09:49.227Z,10.43
2018-10-19T07:12:18.854Z,10.84
2018-10-19T07:14:48.523Z,11.19
2018-10-19T07:17:18.182Z,11.72
2018-10-19T07:19:47.855Z,12.06
2018-10-19T07:22:17.487Z,12.57
2018-10-19T07:24:47.441Z,13.01
2018-10-19T07:27:17.175Z,13.25
2018-10-19T07:29:46.875Z,13.36
2018-10-19T07:32:18.107Z,13.47
2018-10-19T07:34:47.715Z,13.54
2018-10-19T07:37:17.302Z,13.57
2018-10-19T07:39:47.031Z,13.82
2018-10-19T07:42:16.778Z,14.13
2018-10-19T07:44:46.643Z,14.36
2018-10-19T07:47:16.632Z,14.42
2018-10-19T07:49:46.256Z,14.94
2018-10-19T07:52:15.935Z,15.32
2018-10-19T07:54:45.793Z,15.17
2018-10-19T07:57:15.503Z,15.23
2018-10-19T07:59:45.224Z,15.15
2018-10-19T08:02:14.960Z,15.18
2018-10-19T08:04:52.077Z,15.20
2018-10-19T08:07:21.823Z,14.99
2018-10-19T08:09:51.570Z,14.91
2018-10-19T08:12:21.318Z,15.12
2018-10-19T08:14:51.007Z,15.72
2018-10-19T08:17:20.683Z,15.78
2018-10-19T08:19:50.329Z,15.95
2018-10-19T08:22:19.975Z,15.40
2018-10-19T08:24:51.258Z,15.46
2018-10-19T08:27:21.077Z,15.37
2018-10-19T08:29:50.814Z,15.55
2018-10-19T08:32:20.475Z,16.56
2018-10-19T08:34:50.160Z,16.96
2018-10-19T08:37:19.857Z,16.62
2018-10-19T08:39:49.499Z,16.64
2018-10-19T08:42:19.286Z,15.53
2018-10-19T08:44:49.067Z,15.49
2018-10-19T08:47:18.790Z,16.01
2018-10-19T08:49:48.554Z,16.36
2018-10-19T08:52:18.170Z,16.91
2018-10-19T08:54:47.869Z,17.33
2018-10-19T08:57:17.519Z,17.71
2018-10-19T08:59:47.150Z,17.58
2018-10-19T09:02:16.898Z,17.52
2018-10-19T09:04:58.303Z,17.53
2018-10-19T09:07:27.986Z,17.27
2018-10-19T09:09:57.563Z,17.44
2018-10-19T09:12:27.217Z,17.43
2018-10-19T09:14:59.085Z,17.42
2018-10-19T09:17:28.727Z,17.20
2018-10-19T09:19:58.379Z,17.26
2018-10-19T09:22:28.062Z,17.32
2018-10-19T09:24:57.762Z,17.01
2018-10-19T09:27:27.414Z,17.32
2018-10-19T09:29:57.071Z,17.28
2018-10-19T09:32:26.714Z,17.68
2018-10-19T09:34:56.365Z,17.12
2018-10-19T09:37:25.987Z,17.51
2018-10-19T09:39:55.703Z,18.02
2018-10-19T09:42:25.367Z,18.41
2018-10-19T09:44:55.084Z,17.94
2018-10-19T09:47:24.851Z,18.13
2018-10-19T09:49:54.505Z,18.99
2018-10-19T09:52:24.707Z,19.52
2018-10-19T09:54:54.402Z,20.07
2018-10-19T09:57:29.613Z,19.95
2018-10-19T10:00:00.243Z,19.83
2018-10-19T10:02:29.876Z,19.21
2018-10-19T10:04:59.572Z,18.23
2018-10-19T10:07:29.255Z,17.44
2018-10-19T10:09:58.995Z,18.31
2018-10-19T10:12:28.913Z,18.55
2018-10-19T10:14:59.952Z,18.01
2018-10-19T10:17:29.576Z,17.95
2018-10-19T10:19:59.415Z,17.45
2018-10-19T10:22:29.413Z,17.90
2018-10-19T10:24:59.206Z,18.56
2018-10-19T10:27:28.821Z,17.93
2018-10-19T10:29:59.989Z,17.65
2018-10-19T10:32:54.492Z,17.77
2018-10-19T10:35:24.164Z,18.48
2018-10-19T10:37:54.110Z,18.35
2018-10-19T10:40:23.775Z,17.71
2018-10-19T10:42:55.672Z,17.71
2018-10-19T10:45:25.361Z,17.54
2018-10-19T10:47:55.037Z,17.80
2018-10-19T10:50:24.792Z,18.02
2018-10-19T10:52:54.829Z,19.06
2018-10-19T10:55:24.511Z,18.70
2018-10-19T10:57:54.178Z,18.78
2018-10-19T11:00:24.436Z,17.58
2018-10-19T11:02:54.687Z,18.54
2018-10-19T11:05:24.379Z,19.42
2018-10-19T11:07:53.992Z,19.10
2018-10-19T11:10:46.441Z,19.42
2018-10-19T11:13:16.157Z,19.33
2018-10-19T11:15:45.802Z,19.83
2018-10-19T11:18:15.710Z,19.28
2018-10-19T11:20:45.631Z,20.91
2018-10-19T11:23:37.489Z,21.38
2018-10-19T11:26:07.316Z,20.56
2018-10-19T11:28:36.934Z,20.30
2018-10-19T11:31:07.018Z,20.25
2018-10-19T11:33:40.204Z,20.53
2018-10-19T11:36:10.093Z,19.79
2018-10-19T11:38:39.718Z,19.64
2018-10-19T11:41:10.050Z,19.87
2018-10-19T11:43:51.137Z,20.52
2018-10-19T11:46:21.788Z,20.65
2018-10-19T11:49:06.127Z,20.42
2018-10-19T11:51:35.772Z,20.29
2018-10-19T11:54:05.757Z,19.73
2018-10-19T11:56:35.475Z,20.42
2018-10-19T11:59:05.685Z,21.04
2018-10-19T12:01:35.342Z,21.78
2018-10-19T12:04:06.230Z,20.88
2018-10-19T12:06:35.807Z,21.34
2018-10-19T12:09:08.094Z,21.39
2018-10-19T12:14:59.484Z,22.14
2018-10-19T12:17:29.203Z,22.55
2018-10-19T12:20:22.593Z,21.85
2018-10-19T12:22:52.304Z,21.45
2018-10-19T12:25:22.029Z,20.57
2018-10-19T12:27:51.661Z,20.58
2018-10-19T12:30:21.468Z,21.10
2018-10-19T12:32:51.226Z,21.68
2018-10-19T12:35:21.088Z,21.66
2018-10-19T12:37:50.685Z,22.05
2018-10-19T12:40:20.444Z,22.27
2018-10-19T12:42:50.166Z,22.56
2018-10-19T12:46:39.363Z,23.23
2018-10-19T12:49:09.686Z,24.22
2018-10-19T12:51:39.532Z,23.19
2018-10-19T12:54:14.663Z,23.74
2018-10-19T12:56:44.314Z,23.47
2018-10-19T12:59:13.986Z,22.53
2018-10-19T13:01:43.666Z,22.62
2018-10-19T13:04:13.375Z,23.73
2018-10-19T13:06:43.030Z,24.24
2018-10-19T13:09:13.979Z,25.01
2018-10-19T13:11:43.579Z,25.14
2018-10-19T13:14:13.320Z,25.66
2018-10-19T13:16:42.984Z,23.16
2018-10-19T13:19:12.646Z,23.10
2018-10-19T13:21:42.240Z,24.11
2018-10-19T13:24:12.948Z,24.51
2018-10-19T13:26:42.391Z,23.15
2018-10-19T13:29:11.986Z,23.41
2018-10-19T13:31:41.727Z,25.17
2018-10-19T13:34:17.468Z,25.60
2018-10-19T13:36:47.162Z,23.94
2018-10-19T13:39:16.887Z,24.56
2018-10-19T13:41:46.479Z,24.84
2018-10-19T13:44:25.998Z,26.39
2018-10-19T13:46:55.562Z,25.80
2018-10-19T13:49:25.148Z,26.06
2018-10-19T13:51:54.759Z,26.32
2018-10-19T13:54:24.337Z,26.45
2018-10-19T13:56:53.860Z,25.50
2018-10-19T13:59:23.430Z,25.67
2018-10-19T14:02:00.289Z,25.43
2018-10-19T14:04:30.071Z,25.11
2018-10-19T14:06:59.791Z,25.27
2018-10-19T14:09:29.583Z,25.04
2018-10-19T14:12:04.369Z,24.70
2018-10-19T14:14:34.022Z,24.23
2018-10-19T14:17:05.223Z,24.95
2018-10-19T14:19:35.167Z,25.03
2018-10-19T14:22:04.987Z,24.18
2018-10-19T14:24:34.794Z,22.68
2018-10-19T14:27:05.622Z,23.06
2018-10-19T14:29:35.269Z,22.96
2018-10-19T14:32:05.267Z,22.43
2018-10-19T14:34:34.997Z,23.03
2018-10-19T14:37:05.194Z,23.45
2018-10-19T14:39:47.342Z,23.29
2018-10-19T14:42:43.726Z,22.89
2018-10-19T14:45:15.235Z,22.05
2018-10-19T14:47:55.581Z,22.07
2018-10-19T14:50:26.340Z,21.85
2018-10-19T14:52:56.312Z,21.92
2018-10-19T14:55:25.926Z,21.95
2018-10-19T14:57:55.709Z,21.87
2018-10-19T15:00:25.641Z,21.82
2018-10-19T15:02:55.532Z,21.37
2018-10-19T15:05:26.323Z,21.65
2018-10-19T15:07:56.131Z,21.76
2018-10-19T15:10:26.006Z,21.82
2018-10-19T15:12:55.760Z,22.30
2018-10-19T15:15:25.467Z,22.38
2018-10-19T15:17:59.942Z,22.17
2018-10-19T15:20:33.749Z,22.21
2018-10-19T15:23:14.804Z,23.14
2018-10-19T15:25:50.623Z,23.61
2018-10-19T15:31:25.414Z,23.09
2018-10-19T15:33:55.074Z,23.06
2018-10-19T15:36:26.619Z,22.85
2018-10-19T15:38:58.903Z,22.36
2018-10-19T15:41:59.596Z,22.28
2018-10-19T15:44:34.187Z,22.04
2018-10-19T15:50:04.038Z,21.71
2018-10-19T15:52:33.688Z,21.09
2018-10-19T15:55:10.448Z,19.93
2018-10-19T15:57:40.534Z,19.39
2018-10-19T16:00:11.541Z,18.82
2018-10-19T16:02:45.288Z,18.43
2018-10-19T16:05:14.978Z,17.88
2018-10-19T16:11:10.369Z,16.70
2018-10-19T16:13:39.749Z,16.22
2018-10-19T16:16:09.366Z,15.88
2018-10-19T16:18:45.825Z,15.50
2018-10-19T16:21:17.339Z,15.29
2018-10-19T16:23:46.693Z,15.12
2018-10-19T16:26:16.137Z,14.96
2018-10-19T16:28:45.474Z,14.81
2018-10-19T16:31:14.818Z,14.63
2018-10-19T16:33:54.628Z,14.50
2018-10-19T16:36:24.011Z,14.32
2018-10-19T16:39:07.609Z,14.17
2018-10-19T16:42:01.725Z,14.03
2018-10-19T16:44:31.017Z,13.91
2018-10-19T16:47:00.537Z,13.87
2018-10-19T16:49:37.426Z,13.79
2018-10-19T16:52:07.130Z,13.67
2018-10-19T16:54:36.361Z,13.52
2018-10-19T16:57:20.349Z,13.44
2018-10-19T16:59:49.670Z,13.30
2018-10-19T17:02:18.991Z,13.21
2018-10-19T17:04:48.396Z,13.12
2018-10-19T17:07:17.678Z,13.02
2018-10-19T17:09:46.999Z,12.98
2018-10-19T17:12:23.352Z,12.88
2018-10-19T17:14:52.736Z,12.84
2018-10-19T17:17:23.570Z,12.74
2018-10-19T17:19:52.912Z,12.61
2018-10-19T17:22:22.251Z,12.53
2018-10-19T17:24:51.581Z,12.45
2018-10-19T17:27:20.937Z,12.38
2018-10-19T17:29:50.253Z,12.29
2018-10-19T17:32:19.561Z,12.24
2018-10-19T17:35:15.892Z,12.20
2018-10-19T17:37:51.666Z,12.15
2018-10-19T17:40:21.006Z,12.06
2018-10-19T17:45:59.047Z,11.86
2018-10-19T17:48:45.234Z,11.78
2018-10-19T17:51:14.607Z,11.70
2018-10-19T17:53:43.905Z,11.67
2018-10-19T17:56:13.221Z,11.58
2018-10-19T17:58:42.574Z,11.52
2018-10-19T18:01:17.534Z,11.45
2018-10-19T18:03:46.870Z,11.38
2018-10-19T18:06:16.309Z,11.25
2018-10-19T18:08:45.575Z,11.23
2018-10-19T18:11:15.094Z,11.20
2018-10-19T18:13:44.378Z,11.14
2018-10-19T18:16:13.776Z,11.07
2018-10-19T18:18:43.059Z,11.02
2018-10-19T18:21:18.311Z,11.03
2018-10-19T18:23:47.686Z,10.98
2018-10-19T18:26:37.783Z,10.90
2018-10-19T18:29:07.337Z,10.91
2018-10-19T18:31:36.714Z,10.85
2018-10-19T18:34:06.055Z,10.83
2018-10-19T18:36:35.378Z,10.81
2018-10-19T18:39:06.581Z,10.73
2018-10-19T18:41:46.362Z,10.69
2018-10-19T18:44:15.749Z,10.70
2018-10-19T18:46:45.025Z,10.66
2018-10-19T18:49:14.369Z,10.49
2018-10-19T18:51:43.694Z,10.39
2018-10-19T18:54:13.027Z,10.28
2018-10-19T18:56:42.366Z,10.32
2018-10-19T18:59:11.808Z,10.36
2018-10-19T19:01:41.086Z,10.32
2018-10-19T19:04:10.430Z,10.24
2018-10-19T19:06:39.763Z,10.23
2018-10-19T19:09:12.953Z,10.27
2018-10-19T19:11:42.422Z,10.31
2018-10-19T19:14:12.527Z,10.35
2018-10-19T19:16:41.861Z,10.36
2018-10-19T19:19:11.158Z,10.38
2018-10-19T19:21:40.606Z,10.32
2018-10-19T19:24:15.214Z,10.14
2018-10-19T19:26:44.522Z,10.03
2018-10-19T19:29:13.904Z,10.00
2018-10-19T19:31:43.202Z,9.95
2018-10-19T19:34:17.691Z,9.97
2018-10-19T19:36:47.161Z,9.94
2018-10-19T19:39:16.485Z,9.93
2018-10-19T19:41:51.186Z,9.93
2018-10-19T19:44:20.501Z,9.87
2018-10-19T19:46:49.810Z,9.86
2018-10-19T19:49:24.522Z,9.82
2018-10-19T19:51:53.834Z,9.67
2018-10-19T19:54:33.237Z,9.64
2018-10-19T19:57:02.551Z,9.72
2018-10-19T19:59:31.897Z,9.79
2018-10-19T20:02:01.302Z,9.87
2018-10-19T20:04:30.582Z,9.84
2018-10-19T20:06:59.905Z,9.82
2018-10-19T20:09:29.250Z,9.81
2018-10-19T20:11:58.562Z,9.78
2018-10-19T20:14:27.894Z,9.74
2018-10-19T20:16:57.389Z,9.72
2018-10-19T20:19:26.687Z,9.65
2018-10-19T20:21:56.248Z,9.57
2018-10-19T20:24:25.601Z,9.52
2018-10-19T20:26:54.908Z,9.41
2018-10-19T20:29:24.220Z,9.49
2018-10-19T20:31:53.580Z,9.52
2018-10-19T20:34:22.898Z,9.35
2018-10-19T20:36:52.205Z,9.41
2018-10-19T20:39:21.542Z,9.51
2018-10-19T20:41:50.855Z,9.42
2018-10-19T20:44:20.154Z,9.27
2018-10-19T20:46:49.476Z,9.34
2018-10-19T20:49:18.789Z,9.32
2018-10-19T20:51:48.086Z,9.26
2018-10-19T20:54:17.398Z,9.17
2018-10-19T20:56:46.701Z,8.96
2018-10-19T20:59:16.087Z,8.87
2018-10-19T21:01:45.390Z,8.81
2018-10-19T21:04:14.697Z,8.75
2018-10-19T21:06:44.006Z,8.85
2018-10-19T21:09:13.334Z,8.91
2018-10-19T21:11:42.653Z,8.88
2018-10-19T21:14:12.196Z,8.87
2018-10-19T21:16:41.301Z,8.78
2018-10-19T21:19:10.734Z,8.72
2018-10-19T21:21:40.037Z,8.66
2018-10-19T21:24:09.379Z,8.64
2018-10-19T21:26:38.973Z,8.47
2018-10-19T21:29:08.381Z,8.43
2018-10-19T21:31:37.644Z,8.42
2018-10-19T21:34:06.960Z,8.33
2018-10-19T21:36:36.262Z,8.34
2018-10-19T21:39:08.356Z,8.43
2018-10-19T21:41:38.046Z,8.47
2018-10-19T21:44:07.435Z,8.50
2018-10-19T21:46:36.738Z,8.49
2018-10-19T21:49:06.418Z,8.46
2018-10-19T21:51:35.780Z,8.41
2018-10-19T21:54:05.668Z,8.30
2018-10-19T21:56:34.973Z,8.19
2018-10-19T21:59:04.321Z,8.27
2018-10-19T22:01:33.650Z,8.39
2018-10-19T22:04:02.946Z,8.45
2018-10-19T22:06:58.219Z,8.47
2018-10-19T22:09:41.567Z,8.45
2018-10-19T22:12:10.901Z,8.39
2018-10-19T22:14:40.223Z,8.39
2018-10-19T22:17:09.654Z,8.46
2018-10-19T22:19:38.890Z,8.56
2018-10-19T22:22:08.208Z,8.58
2018-10-19T22:24:37.565Z,8.66
2018-10-19T22:27:06.937Z,8.77
2018-10-19T22:29:36.221Z,8.90
2018-10-19T22:32:05.763Z,8.98
2018-10-19T22:34:35.086Z,8.98
2018-10-19T22:37:04.933Z,8.98
2018-10-19T22:39:34.230Z,8.93
2018-10-19T22:42:03.554Z,8.77
2018-10-19T22:44:33.130Z,8.73
2018-10-19T22:47:18.689Z,8.88
2018-10-19T22:49:47.990Z,8.92
2018-10-19T22:52:17.313Z,8.96
2018-10-19T22:54:46.642Z,8.96
2018-10-19T22:57:16.238Z,9.05
2018-10-19T22:59:45.548Z,9.13
2018-10-19T23:02:14.961Z,9.14
2018-10-19T23:04:44.270Z,9.15
2018-10-19T23:07:13.669Z,9.26
2018-10-19T23:09:42.979Z,9.34
2018-10-19T23:12:12.239Z,9.42
2018-10-19T23:14:41.542Z,9.45
2018-10-19T23:17:10.913Z,9.50
2018-10-19T23:19:40.205Z,9.61
2018-10-19T23:22:09.505Z,9.72
2018-10-19T23:24:38.854Z,9.80
2018-10-19T23:27:08.170Z,9.85
2018-10-19T23:29:37.594Z,9.94
2018-10-19T23:32:07.314Z,10.08
2018-10-19T23:34:36.678Z,10.19
2018-10-19T23:37:06.060Z,10.20
2018-10-19T23:39:35.394Z,10.00
2018-10-19T23:42:04.731Z,10.08
2018-10-19T23:44:34.040Z,10.06
2018-10-19T23:47:03.413Z,10.08
2018-10-19T23:49:32.701Z,10.12
2018-10-19T23:52:02.006Z,10.08
2018-10-19T23:54:31.357Z,9.99
2018-10-19T23:57:00.689Z,9.93
2018-10-19T23:59:30.985Z,9.90
